createdAt,value
2019-04-03T00:02:10.526Z,98820.58
2019-04-03T00:04:41.061Z,98807.54
2019-04-03T00:07:11.612Z,98812.80
2019-04-03T00:09:42.062Z,98804.66
2019-04-03T00:12:12.815Z,98809.23
2019-04-03T00:14:43.314Z,98803.22
2019-04-03T00:17:15.286Z,98811.05
2019-04-03T00:19:47.736Z,98809.77
2019-04-03T00:22:19.720Z,98800.55
2019-04-03T00:24:52.588Z,98804.83
2019-04-03T00:27:23.406Z,98804.73
2019-04-03T00:29:54.057Z,98791.95
2019-04-03T00:32:24.737Z,98790.78
2019-04-03T00:34:55.302Z,98791.19
2019-04-03T00:37:26.026Z,98804.16
2019-04-03T00:39:56.497Z,98795.45
2019-04-03T00:42:27.091Z,98788.93
2019-04-03T00:44:57.746Z,98796.04
2019-04-03T00:47:28.320Z,98792.27
2019-04-03T00:49:59.239Z,98795.85
2019-04-03T00:52:29.716Z,98801.80
2019-04-03T00:55:00.223Z,98796.73
2019-04-03T00:57:30.773Z,98794.27
2019-04-03T01:00:01.300Z,98790.33
2019-04-03T01:02:31.892Z,98789.15
2019-04-03T01:05:02.481Z,98785.30
2019-04-03T01:07:33.062Z,98784.50
2019-04-03T01:10:03.681Z,98778.69
2019-04-03T01:12:34.142Z,98785.89
2019-04-03T01:15:05.336Z,98782.73
2019-04-03T01:17:35.800Z,98789.05
2019-04-03T01:20:07.811Z,98782.64
2019-04-03T01:22:38.473Z,98783.33
2019-04-03T01:25:09.866Z,98773.56
2019-04-03T01:27:41.765Z,98771.27
2019-04-03T01:30:13.997Z,98769.30
2019-04-03T01:32:46.821Z,98769.08
2019-04-03T01:35:17.826Z,98767.69
2019-04-03T01:37:49.916Z,98766.02
2019-04-03T01:40:21.203Z,98761.88
2019-04-03T01:42:52.807Z,98759.89
2019-04-03T01:45:25.870Z,98763.94
2019-04-03T01:47:58.177Z,98755.96
2019-04-03T01:50:29.233Z,98755.85
2019-04-03T01:53:01.941Z,98759.10
2019-04-03T01:55:34.106Z,98749.02
2019-04-03T01:58:06.711Z,98758.22
2019-04-03T02:00:37.657Z,98747.27
2019-04-03T02:03:10.298Z,98747.38
2019-04-03T02:05:43.247Z,98745.39
2019-04-03T02:08:14.733Z,98734.91
2019-04-03T02:10:48.235Z,98732.86
2019-04-03T02:13:18.216Z,98738.09
2019-04-03T02:15:49.046Z,98726.13
2019-04-03T02:18:19.600Z,98734.63
2019-04-03T02:20:50.232Z,98727.41
2019-04-03T02:23:20.896Z,98732.55
2019-04-03T02:25:51.610Z,98718.33
2019-04-03T02:28:22.096Z,98718.93
2019-04-03T02:30:52.747Z,98718.22
2019-04-03T02:33:23.270Z,98721.41
2019-04-03T02:35:54.083Z,98708.35
2019-04-03T02:38:24.755Z,98716.15
2019-04-03T02:40:55.563Z,98703.73
2019-04-03T02:43:25.989Z,98703.41
2019-04-03T02:45:57.235Z,98700.27
2019-04-03T02:48:27.872Z,98702.16
2019-04-03T02:50:58.616Z,98702.45
2019-04-03T02:53:30.537Z,98705.69
2019-04-03T02:56:01.292Z,98691.78
2019-04-03T02:58:31.801Z,98691.07
2019-04-03T03:01:05.243Z,98686.05
2019-04-03T03:03:34.792Z,98688.41
2019-04-03T03:06:06.333Z,98689.00
2019-04-03T03:08:40.347Z,98689.48
2019-04-03T03:11:10.032Z,98673.66
2019-04-03T03:13:41.093Z,98683.34
2019-04-03T03:16:11.913Z,98684.16
2019-04-03T03:18:43.246Z,98674.66
2019-04-03T03:21:14.895Z,98687.78
2019-04-03T03:23:45.905Z,98679.56
2019-04-03T03:26:16.653Z,98680.17
2019-04-03T03:28:48.038Z,98686.28
2019-04-03T03:31:19.571Z,98684.52
2019-04-03T03:33:50.938Z,98679.48
2019-04-03T03:36:25.484Z,98676.63
2019-04-03T03:38:56.721Z,98677.20
2019-04-03T03:41:27.637Z,98674.54
2019-04-03T03:43:58.747Z,98675.63
2019-04-03T03:46:29.882Z,98679.67
2019-04-03T03:49:00.859Z,98672.98
2019-04-03T03:51:34.064Z,98679.50
2019-04-03T03:54:05.607Z,98671.79
2019-04-03T03:56:36.431Z,98670.69
2019-04-03T03:59:07.663Z,98663.77
2019-04-03T04:01:38.579Z,98663.86
2019-04-03T04:04:12.954Z,98663.56
2019-04-03T04:06:41.725Z,98666.31
2019-04-03T04:09:15.635Z,98666.81
2019-04-03T04:11:44.934Z,98661.89
2019-04-03T04:14:16.291Z,98662.28
2019-04-03T04:16:46.944Z,98668.79
2019-04-03T04:19:17.905Z,98667.48
2019-04-03T04:21:49.394Z,98659.38
2019-04-03T04:24:20.295Z,98662.22
2019-04-03T04:26:51.301Z,98656.91
2019-04-03T04:29:21.988Z,98658.94
2019-04-03T04:31:52.540Z,98643.09
2019-04-03T04:34:23.160Z,98642.32
2019-04-03T04:36:55.374Z,98655.35
2019-04-03T04:39:28.007Z,98642.97
2019-04-03T04:41:58.620Z,98650.59
2019-04-03T04:44:29.321Z,98634.19
2019-04-03T04:46:59.886Z,98639.38
2019-04-03T04:49:30.441Z,98650.87
2019-04-03T04:52:01.311Z,98638.09
2019-04-03T04:54:31.982Z,98649.88
2019-04-03T04:57:02.671Z,98648.06
2019-04-03T04:59:35.890Z,98648.36
2019-04-03T05:02:05.777Z,98651.27
2019-04-03T05:04:36.694Z,98648.76
2019-04-03T05:07:07.493Z,98650.89
2019-04-03T05:09:38.173Z,98643.67
2019-04-03T05:12:09.733Z,98635.11
2019-04-03T05:14:41.179Z,98642.02
2019-04-03T05:17:11.977Z,98639.82
2019-04-03T05:19:42.766Z,98634.13
2019-04-03T05:22:13.421Z,98647.77
2019-04-03T05:24:44.135Z,98650.26
2019-04-03T05:27:14.863Z,98651.42
2019-04-03T05:29:45.550Z,98645.31
2019-04-03T05:32:16.468Z,98632.89
2019-04-03T05:34:47.116Z,98637.24
2019-04-03T05:37:20.212Z,98639.33
2019-04-03T05:39:51.308Z,98650.44
2019-04-03T05:42:22.176Z,98643.84
2019-04-03T05:44:52.900Z,98637.21
2019-04-03T05:47:23.833Z,98633.98
2019-04-03T05:49:56.132Z,98649.72
2019-04-03T05:52:27.207Z,98649.87
2019-04-03T05:54:57.987Z,98638.75
2019-04-03T05:57:29.578Z,98641.09
2019-04-03T06:00:02.225Z,98646.23
2019-04-03T06:02:32.681Z,98637.92
2019-04-03T06:05:06.043Z,98638.19
2019-04-03T06:07:35.749Z,98637.13
2019-04-03T06:10:07.682Z,98632.33
2019-04-03T06:12:38.407Z,98636.11
2019-04-03T06:15:10.333Z,98634.63
2019-04-03T06:17:41.162Z,98626.35
2019-04-03T06:20:12.099Z,98628.50
2019-04-03T06:22:42.780Z,98636.50
2019-04-03T06:25:13.993Z,98641.58
2019-04-03T06:27:46.899Z,98645.86
2019-04-03T06:30:18.621Z,98636.44
2019-04-03T06:32:49.284Z,98632.58
2019-04-03T06:35:20.173Z,98626.10
2019-04-03T06:37:52.531Z,98632.70
2019-04-03T06:40:23.255Z,98628.05
2019-04-03T06:42:54.715Z,98618.05
2019-04-03T06:45:26.139Z,98615.29
2019-04-03T06:47:57.814Z,98620.28
2019-04-03T06:50:28.433Z,98630.25
2019-04-03T06:52:59.031Z,98630.66
2019-04-03T06:55:29.547Z,98637.01
2019-04-03T06:58:00.241Z,98636.97
2019-04-03T07:00:30.831Z,98625.73
2019-04-03T07:03:03.442Z,98617.52
2019-04-03T07:05:33.831Z,98625.80
2019-04-03T07:08:05.936Z,98620.05
2019-04-03T07:10:40.080Z,98627.28
2019-04-03T07:13:09.774Z,98617.32
2019-04-03T07:15:40.593Z,98631.95
2019-04-03T07:18:11.500Z,98612.43
2019-04-03T07:20:42.996Z,98614.98
2019-04-03T07:23:13.882Z,98618.15
2019-04-03T07:25:44.462Z,98621.94
2019-04-03T07:28:15.147Z,98601.57
2019-04-03T07:30:46.160Z,98610.53
2019-04-03T07:33:16.757Z,98619.77
2019-04-03T07:35:47.338Z,98609.72
2019-04-03T07:38:18.085Z,98620.39
2019-04-03T07:40:50.937Z,98603.50
2019-04-03T07:43:21.086Z,98615.71
2019-04-03T07:45:51.836Z,98607.99
2019-04-03T07:48:22.464Z,98612.64
2019-04-03T07:50:53.136Z,98618.87
2019-04-03T07:53:24.025Z,98614.31
2019-04-03T07:55:55.410Z,98626.61
2019-04-03T07:58:26.857Z,98609.03
2019-04-03T08:00:57.729Z,98607.98
2019-04-03T08:03:28.417Z,98610.31
2019-04-03T08:05:59.223Z,98609.41
2019-04-03T08:08:30.022Z,98603.63
2019-04-03T08:11:01.867Z,98609.56
2019-04-03T08:13:33.420Z,98595.47
2019-04-03T08:16:03.865Z,98610.34
2019-04-03T08:18:34.664Z,98602.88
2019-04-03T08:21:05.255Z,98610.53
2019-04-03T08:23:36.730Z,98603.25
2019-04-03T08:26:11.248Z,98595.89
2019-04-03T08:28:40.957Z,98590.72
2019-04-03T08:31:12.124Z,98618.47
2019-04-03T08:33:43.125Z,98591.46
2019-04-03T08:36:23.178Z,98594.66
2019-04-03T08:38:46.490Z,98587.80
2019-04-03T08:41:17.092Z,98596.41
2019-04-03T08:43:47.850Z,98581.45
2019-04-03T08:46:18.601Z,98588.16
2019-04-03T08:48:49.263Z,98599.81
2019-04-03T08:51:20.105Z,98588.55
2019-04-03T08:53:53.647Z,98595.01
2019-04-03T08:56:22.982Z,98576.95
2019-04-03T08:58:56.509Z,98570.56
2019-04-03T09:01:26.175Z,98568.83
2019-04-03T09:03:56.812Z,98572.56
2019-04-03T09:06:27.536Z,98571.45
2019-04-03T09:08:58.699Z,98576.23
2019-04-03T09:11:29.966Z,98569.13
2019-04-03T09:14:00.799Z,98562.33
2019-04-03T09:16:32.159Z,98564.42
2019-04-03T09:19:03.264Z,98563.65
2019-04-03T09:21:34.010Z,98567.27
2019-04-03T09:24:04.819Z,98579.97
2019-04-03T09:26:38.073Z,98544.59
2019-04-03T09:29:08.038Z,98558.69
2019-04-03T09:31:38.754Z,98551.53
2019-04-03T09:34:09.481Z,98551.27
2019-04-03T09:36:40.120Z,98547.75
2019-04-03T09:39:13.967Z,98543.78
2019-04-03T09:41:45.333Z,98543.66
2019-04-03T09:44:16.041Z,98533.19
2019-04-03T09:46:46.875Z,98530.34
2019-04-03T09:49:17.601Z,98533.61
2019-04-03T09:51:49.790Z,98525.89
2019-04-03T09:54:20.637Z,98510.45
2019-04-03T09:56:57.817Z,98519.38
2019-04-03T09:59:23.807Z,98523.25
2019-04-03T10:01:54.353Z,98522.11
2019-04-03T10:04:26.069Z,98514.94
2019-04-03T10:06:57.516Z,98512.77
2019-04-03T10:09:28.178Z,98512.27
2019-04-03T10:11:58.839Z,98514.70
2019-04-03T10:14:30.014Z,98519.12
2019-04-03T10:17:00.981Z,98499.70
2019-04-03T10:19:31.616Z,98509.54
2019-04-03T10:22:02.196Z,98488.02
2019-04-03T10:24:33.258Z,98479.04
2019-04-03T10:27:04.958Z,98485.72
2019-04-03T10:29:35.748Z,98487.70
2019-04-03T10:32:06.497Z,98493.05
2019-04-03T10:34:37.015Z,98495.64
2019-04-03T10:37:07.554Z,98478.16
2019-04-03T10:39:41.964Z,98477.37
2019-04-03T10:42:10.707Z,98494.53
2019-04-03T10:44:41.250Z,98482.10
2019-04-03T10:47:11.890Z,98468.34
2019-04-03T10:49:42.473Z,98473.20
2019-04-03T10:52:14.377Z,98476.36
2019-04-03T10:54:45.081Z,98462.28
2019-04-03T10:57:15.721Z,98450.60
2019-04-03T10:59:47.935Z,98458.52
2019-04-03T11:02:18.606Z,98441.86
2019-04-03T11:04:49.084Z,98447.98
2019-04-03T11:07:19.687Z,98448.88
2019-04-03T11:09:50.283Z,98437.02
2019-04-03T11:12:21.313Z,98441.15
2019-04-03T11:14:52.165Z,98422.55
2019-04-03T11:17:25.247Z,98417.30
2019-04-03T11:19:55.391Z,98429.13
2019-04-03T11:22:26.052Z,98425.67
2019-04-03T11:24:56.691Z,98443.44
2019-04-03T11:27:40.782Z,98417.23
2019-04-03T11:30:00.275Z,98418.71
2019-04-03T11:32:31.101Z,98404.42
2019-04-03T11:35:01.739Z,98408.83
2019-04-03T11:37:33.476Z,98406.42
2019-04-03T11:40:05.862Z,98395.92
2019-04-03T11:42:36.830Z,98383.64
2019-04-03T11:45:08.376Z,98376.17
2019-04-03T11:47:39.231Z,98392.48
2019-04-03T11:50:11.152Z,98375.92
2019-04-03T11:52:42.244Z,98389.72
2019-04-03T11:55:13.457Z,98382.86
2019-04-03T11:57:47.223Z,98393.84
2019-04-03T12:00:20.100Z,98375.32
2019-04-03T12:02:51.159Z,98377.80
2019-04-03T12:05:21.780Z,98373.43
2019-04-03T12:07:52.286Z,98394.30
2019-04-03T12:10:25.383Z,98392.49
2019-04-03T12:12:55.381Z,98364.59
2019-04-03T12:15:26.101Z,98360.35
2019-04-03T12:17:56.877Z,98373.36
2019-04-03T12:20:27.595Z,98354.22
2019-04-03T12:22:58.271Z,98385.77
2019-04-03T12:25:28.851Z,98362.98
2019-04-03T12:27:59.374Z,98363.08
2019-04-03T12:30:30.374Z,98357.08
2019-04-03T12:33:01.088Z,98365.66
2019-04-03T12:35:31.959Z,98361.63
2019-04-03T12:38:02.794Z,98340.13
2019-04-03T12:40:33.665Z,98332.78
2019-04-03T12:43:04.391Z,98350.69
2019-04-03T12:45:35.211Z,98354.17
2019-04-03T12:48:05.893Z,98342.44
2019-04-03T12:50:36.925Z,98346.70
2019-04-03T12:53:07.651Z,98338.40
2019-04-03T12:55:38.361Z,98351.16
2019-04-03T12:58:09.009Z,98336.67
2019-04-03T13:00:40.161Z,98322.79
2019-04-03T13:03:11.299Z,98315.70
2019-04-03T13:05:42.048Z,98319.19
2019-04-03T13:08:12.791Z,98338.41
2019-04-03T13:10:47.846Z,98314.87
2019-04-03T13:13:16.047Z,98316.22
2019-04-03T13:15:47.050Z,98333.16
2019-04-03T13:18:17.796Z,98332.67
2019-04-03T13:20:48.798Z,98316.14
2019-04-03T13:23:19.471Z,98306.98
2019-04-03T13:25:51.002Z,98316.61
2019-04-03T13:28:22.772Z,98311.35
2019-04-03T13:30:53.477Z,98313.98
2019-04-03T13:33:24.444Z,98304.36
2019-04-03T13:35:55.134Z,98306.10
2019-04-03T13:38:27.797Z,98310.47
2019-04-03T13:40:58.385Z,98302.63
2019-04-03T13:43:29.332Z,98301.73
2019-04-03T13:46:00.191Z,98315.30
2019-04-03T13:48:31.115Z,98297.41
2019-04-03T13:51:01.910Z,98298.22
2019-04-03T13:53:32.406Z,98300.88
2019-04-03T13:56:05.500Z,98299.21
2019-04-03T13:58:35.463Z,98288.21
2019-04-03T14:01:09.249Z,98282.89
2019-04-03T14:03:38.992Z,98288.99
2019-04-03T14:06:09.722Z,98288.09
2019-04-03T14:08:40.401Z,98281.11
2019-04-03T14:11:11.188Z,98289.88
2019-04-03T14:13:43.673Z,98293.39
2019-04-03T14:16:21.647Z,98293.34
2019-04-03T14:18:49.452Z,98276.32
2019-04-03T14:21:19.097Z,98266.25
2019-04-03T14:23:49.791Z,98279.88
2019-04-03T14:26:20.469Z,98273.73
2019-04-03T14:28:50.999Z,98272.02
2019-04-03T14:31:33.390Z,98266.37
2019-04-03T14:33:54.951Z,98265.48
2019-04-03T14:36:27.849Z,98267.62
2019-04-03T14:38:58.762Z,98275.05
2019-04-03T14:41:29.892Z,98275.50
2019-04-03T14:44:02.939Z,98265.00
2019-04-03T14:46:33.988Z,98257.94
2019-04-03T14:49:04.790Z,98256.66
2019-04-03T14:51:35.423Z,98250.97
2019-04-03T14:54:08.106Z,98254.45
2019-04-03T14:56:39.118Z,98241.78
2019-04-03T14:59:10.145Z,98249.64
2019-04-03T15:01:41.011Z,98249.23
2019-04-03T15:04:11.934Z,98243.09
2019-04-03T15:06:44.196Z,98254.48
2019-04-03T15:09:15.548Z,98245.73
2019-04-03T15:11:46.377Z,98243.06
2019-04-03T15:14:17.555Z,98244.81
2019-04-03T15:16:48.717Z,98236.05
2019-04-03T15:19:19.397Z,98248.75
2019-04-03T15:21:50.542Z,98236.05
2019-04-03T15:24:21.266Z,98243.03
2019-04-03T15:26:53.486Z,98232.50
2019-04-03T15:29:24.337Z,98233.77
2019-04-03T15:31:55.280Z,98249.94
2019-04-03T15:34:27.745Z,98238.98
2019-04-03T15:36:58.721Z,98233.30
2019-04-03T15:39:29.935Z,98234.56
2019-04-03T15:42:01.031Z,98234.14
2019-04-03T15:44:31.998Z,98222.76
2019-04-03T15:47:03.003Z,98245.48
2019-04-03T15:49:34.016Z,98222.75
2019-04-03T15:52:04.996Z,98209.13
2019-04-03T15:54:35.851Z,98220.89
2019-04-03T15:57:06.590Z,98220.45
2019-04-03T15:59:37.559Z,98220.41
2019-04-03T16:02:10.517Z,98226.96
2019-04-03T16:04:40.926Z,98224.68
2019-04-03T16:07:11.526Z,98225.02
2019-04-03T16:09:42.516Z,98219.68
2019-04-03T16:12:13.654Z,98233.64
2019-04-03T16:14:44.642Z,98231.80
2019-04-03T16:17:15.567Z,98225.69
2019-04-03T16:19:46.311Z,98237.00
2019-04-03T16:22:17.195Z,98229.47
2019-04-03T16:24:47.891Z,98226.33
2019-04-03T16:27:18.711Z,98215.86
2019-04-03T16:29:49.331Z,98228.00
2019-04-03T16:32:19.840Z,98220.93
2019-04-03T16:34:50.716Z,98220.14
2019-04-03T16:37:22.795Z,98210.54
2019-04-03T16:39:54.063Z,98219.00
2019-04-03T16:42:24.845Z,98218.05
2019-04-03T16:44:57.558Z,98229.32
2019-04-03T16:47:27.960Z,98222.27
2019-04-03T16:49:58.739Z,98217.98
2019-04-03T16:52:30.310Z,98219.47
2019-04-03T16:55:01.048Z,98217.00
2019-04-03T16:57:31.870Z,98210.31
2019-04-03T17:00:02.506Z,98207.27
2019-04-03T17:02:33.295Z,98208.52
2019-04-03T17:05:06.215Z,98221.39
2019-04-03T17:07:38.392Z,98205.11
2019-04-03T17:10:10.593Z,98211.07
2019-04-03T17:12:41.551Z,98211.34
2019-04-03T17:15:13.261Z,98204.78
2019-04-03T17:17:46.229Z,98210.36
2019-04-03T17:20:17.147Z,98218.59
2019-04-03T17:22:48.325Z,98208.88
2019-04-03T17:25:18.975Z,98216.70
2019-04-03T17:27:57.350Z,98215.26
2019-04-03T17:30:22.759Z,98217.11
2019-04-03T17:32:53.489Z,98220.16
2019-04-03T17:35:29.122Z,98229.23
2019-04-03T17:38:00.932Z,98229.84
2019-04-03T17:40:32.628Z,98236.10
2019-04-03T17:43:07.192Z,98232.05
2019-04-03T17:45:37.905Z,98230.25
2019-04-03T17:48:10.051Z,98230.65
2019-04-03T17:50:41.101Z,98231.45
2019-04-03T17:53:11.860Z,98237.95
2019-04-03T17:55:45.278Z,98238.81
2019-04-03T17:58:16.863Z,98233.94
2019-04-03T18:00:47.756Z,98240.30
2019-04-03T18:03:19.593Z,98251.47
2019-04-03T18:05:52.776Z,98245.97
2019-04-03T18:08:27.082Z,98238.12
2019-04-03T18:10:59.226Z,98237.43
2019-04-03T18:13:29.975Z,98246.31
2019-04-03T18:16:01.716Z,98246.69
2019-04-03T18:18:33.410Z,98256.04
2019-04-03T18:21:05.350Z,98253.67
2019-04-03T18:23:38.510Z,98250.34
2019-04-03T18:26:09.722Z,98259.41
2019-04-03T18:28:45.059Z,98255.70
2019-04-03T18:31:18.205Z,98258.78
2019-04-03T18:33:51.456Z,98257.80
2019-04-03T18:36:22.394Z,98268.50
2019-04-03T18:38:54.235Z,98266.73
2019-04-03T18:41:34.715Z,98265.57
2019-04-03T18:44:06.570Z,98272.11
2019-04-03T18:46:40.681Z,98261.66
2019-04-03T18:49:12.391Z,98265.06
2019-04-03T18:51:55.110Z,98262.65
2019-04-03T18:54:27.077Z,98265.05
2019-04-03T18:56:59.477Z,98268.70
2019-04-03T18:59:31.457Z,98269.23
2019-04-03T19:02:04.604Z,98271.84
2019-04-03T19:04:37.683Z,98275.98
2019-04-03T19:07:10.548Z,98272.19
2019-04-03T19:09:47.777Z,98272.28
2019-04-03T19:12:34.972Z,98275.23
2019-04-03T19:15:02.515Z,98269.94
2019-04-03T19:17:36.428Z,98272.80
2019-04-03T19:20:13.247Z,98277.23
2019-04-03T19:23:02.508Z,98272.98
2019-04-03T19:25:37.761Z,98277.39
2019-04-03T19:28:09.481Z,98280.80
2019-04-03T19:30:41.445Z,98279.42
2019-04-03T19:33:15.497Z,98284.05
2019-04-03T19:35:48.574Z,98288.86
2019-04-03T19:38:25.409Z,98279.77
2019-04-03T19:41:03.591Z,98281.95
2019-04-03T19:43:38.384Z,98281.06
2019-04-03T19:46:09.211Z,98281.55
2019-04-03T19:48:42.686Z,98277.85
2019-04-03T19:51:16.836Z,98279.88
2019-04-03T19:53:59.114Z,98284.80
2019-04-03T19:56:31.554Z,98281.55
2019-04-03T19:59:05.373Z,98281.72
2019-04-03T20:01:39.573Z,98277.78
2019-04-03T20:04:11.660Z,98275.42
2019-04-03T20:06:47.071Z,98285.41
2019-04-03T20:09:17.917Z,98280.80
2019-04-03T20:11:58.432Z,98278.33
2019-04-03T20:14:31.891Z,98282.98
2019-04-03T20:17:03.025Z,98281.34
2019-04-03T20:19:34.963Z,98280.00
2019-04-03T20:22:07.541Z,98278.09
2019-04-03T20:24:43.733Z,98277.91
2019-04-03T20:27:17.214Z,98272.42
2019-04-03T20:29:52.709Z,98280.75
2019-04-03T20:32:31.381Z,98279.61
2019-04-03T20:35:02.015Z,98277.54
2019-04-03T20:37:32.778Z,98279.84
2019-04-03T20:40:03.805Z,98270.64
2019-04-03T20:42:34.517Z,98271.39
2019-04-03T20:45:06.011Z,98270.87
2019-04-03T20:47:36.651Z,98268.97
2019-04-03T20:50:08.246Z,98277.54
2019-04-03T20:52:39.069Z,98280.22
2019-04-03T20:55:10.496Z,98273.93
2019-04-03T20:57:41.072Z,98266.14
2019-04-03T21:00:14.361Z,98277.42
2019-04-03T21:02:45.241Z,98268.75
2019-04-03T21:05:18.116Z,98266.89
2019-04-03T21:07:48.457Z,98265.64
2019-04-03T21:10:20.179Z,98270.77
2019-04-03T21:12:51.104Z,98275.84
2019-04-03T21:15:21.796Z,98257.39
2019-04-03T21:17:52.411Z,98272.19
2019-04-03T21:20:23.809Z,98265.57
2019-04-03T21:22:55.365Z,98265.91
2019-04-03T21:25:26.071Z,98270.70
2019-04-03T21:28:01.750Z,98276.25
2019-04-03T21:30:32.457Z,98277.64
2019-04-03T21:33:03.509Z,98272.13
2019-04-03T21:35:35.268Z,98275.24
2019-04-03T21:38:06.741Z,98277.84
2019-04-03T21:40:37.898Z,98276.45
2019-04-03T21:43:08.521Z,98280.61
2019-04-03T21:45:39.189Z,98271.19
2019-04-03T21:48:09.944Z,98263.97
2019-04-03T21:50:40.641Z,98256.58
2019-04-03T21:53:11.274Z,98259.48
2019-04-03T21:55:42.034Z,98257.42
2019-04-03T21:58:12.701Z,98256.20
2019-04-03T22:01:23.241Z,98252.84
2019-04-03T22:03:54.552Z,98254.22
2019-04-03T22:06:27.541Z,98260.63
2019-04-03T22:08:59.675Z,98253.89
2019-04-03T22:11:30.127Z,98250.94
2019-04-03T22:14:00.711Z,98243.70
2019-04-03T22:16:31.341Z,98248.57
2019-04-03T22:19:01.882Z,98243.67
2019-04-03T22:21:33.055Z,98257.83
2019-04-03T22:24:06.596Z,98244.59
2019-04-03T22:26:36.172Z,98255.79
2019-04-03T22:29:07.260Z,98256.23
2019-04-03T22:31:37.971Z,98250.06
2019-04-03T22:34:08.701Z,98250.42
2019-04-03T22:36:39.256Z,98260.02
2019-04-03T22:39:10.350Z,98248.83
2019-04-03T22:41:42.823Z,98249.05
2019-04-03T22:44:16.768Z,98246.92
2019-04-03T22:46:45.878Z,98241.19
2019-04-03T22:49:16.668Z,98239.41
2019-04-03T22:51:47.380Z,98234.80
2019-04-03T22:54:18.623Z,98241.59
2019-04-03T22:56:49.676Z,98236.09
2019-04-03T22:59:23.592Z,98236.77
2019-04-03T23:01:52.826Z,98234.05
2019-04-03T23:04:23.497Z,98235.34
2019-04-03T23:06:54.511Z,98234.55
2019-04-03T23:09:25.543Z,98229.57
2019-04-03T23:11:56.397Z,98233.69
2019-04-03T23:14:26.998Z,98229.44
2019-04-03T23:16:57.678Z,98229.84
2019-04-03T23:19:28.392Z,98223.17
2019-04-03T23:21:59.208Z,98221.91
2019-04-03T23:24:29.850Z,98224.67
2019-04-03T23:27:02.426Z,98226.17
2019-04-03T23:29:35.912Z,98224.44
2019-04-03T23:32:05.164Z,98213.16
2019-04-03T23:34:36.161Z,98217.64
2019-04-03T23:37:06.836Z,98214.91
2019-04-03T23:39:37.439Z,98215.00
2019-04-03T23:42:08.135Z,98207.08
2019-04-03T23:44:41.720Z,98213.95
2019-04-03T23:47:11.361Z,98213.84
2019-04-03T23:49:42.032Z,98206.55
2019-04-03T23:52:12.750Z,98201.02
2019-04-03T23:54:43.315Z,98199.14
2019-04-03T23:57:14.341Z,98202.73
2019-04-03T23:59:45.025Z,98202.83
